sensor_id;sensor_type;location;lat;lon;timestamp;temperature;humidity
39045;DHT22;52192;52.002;5.956;2023-05-10T00:00:12;16.00;84.60
39045;DHT22;52192;52.002;5.956;2023-05-10T00:02:38;15.90;84.60
39045;DHT22;52192;52.002;5.956;2023-05-10T00:05:04;16.00;84.70
39045;DHT22;52192;52.002;5.956;2023-05-10T00:07:30;16.00;84.60
39045;DHT22;52192;52.002;5.956;2023-05-10T00:09:56;16.00;84.50
39045;DHT22;52192;52.002;5.956;2023-05-10T00:12:21;16.00;84.50
39045;DHT22;52192;52.002;5.956;2023-05-10T00:14:47;16.10;84.50
39045;DHT22;52192;52.002;5.956;2023-05-10T00:17:13;16.00;84.50
39045;DHT22;52192;52.002;5.956;2023-05-10T00:19:38;16.00;84.50
39045;DHT22;52192;52.002;5.956;2023-05-10T00:22:04;16.00;84.60
39045;DHT22;52192;52.002;5.956;2023-05-10T00:24:30;16.00;84.50
39045;DHT22;52192;52.002;5.956;2023-05-10T00:26:55;16.00;84.50
39045;DHT22;52192;52.002;5.956;2023-05-10T00:29:21;16.00;84.50
39045;DHT22;52192;52.002;5.956;2023-05-10T00:31:47;16.00;84.60
39045;DHT22;52192;52.002;5.956;2023-05-10T00:34:12;16.00;84.60
39045;DHT22;52192;52.002;5.956;2023-05-10T00:36:38;16.00;84.60
39045;DHT22;52192;52.002;5.956;2023-05-10T00:39:04;16.00;84.50
39045;DHT22;52192;52.002;5.956;2023-05-10T00:41:30;16.00;84.50
39045;DHT22;52192;52.002;5.956;2023-05-10T00:43:58;16.00;84.60
39045;DHT22;52192;52.002;5.956;2023-05-10T00:46:25;15.90;84.70
39045;DHT22;52192;52.002;5.956;2023-05-10T00:48:51;15.90;84.80
39045;DHT22;52192;52.002;5.956;2023-05-10T00:51:17;15.90;84.90
39045;DHT22;52192;52.002;5.956;2023-05-10T00:53:45;15.90;85.00
39045;DHT22;52192;52.002;5.956;2023-05-10T00:56:11;15.80;85.00
39045;DHT22;52192;52.002;5.956;2023-05-10T00:58:38;15.90;85.00
39045;DHT22;52192;52.002;5.956;2023-05-10T01:01:05;15.90;84.90
39045;DHT22;52192;52.002;5.956;2023-05-10T01:03:32;15.90;85.00
39045;DHT22;52192;52.002;5.956;2023-05-10T01:05:58;15.90;84.90
39045;DHT22;52192;52.002;5.956;2023-05-10T01:08:24;15.90;84.90
39045;DHT22;52192;52.002;5.956;2023-05-10T01:10:50;16.00;84.90
39045;DHT22;52192;52.002;5.956;2023-05-10T01:13:33;16.00;84.80
39045;DHT22;52192;52.002;5.956;2023-05-10T01:15:59;16.00;84.80
39045;DHT22;52192;52.002;5.956;2023-05-10T01:18:28;16.00;84.80
39045;DHT22;52192;52.002;5.956;2023-05-10T01:29:27;16.00;85.50
39045;DHT22;52192;52.002;5.956;2023-05-10T01:32:13;16.00;84.90
39045;DHT22;52192;52.002;5.956;2023-05-10T01:34:53;16.00;85.10
39045;DHT22;52192;52.002;5.956;2023-05-10T01:37:44;16.00;85.10
39045;DHT22;52192;52.002;5.956;2023-05-10T01:40:28;16.00;85.00
39045;DHT22;52192;52.002;5.956;2023-05-10T01:43:01;15.90;85.20
39045;DHT22;52192;52.002;5.956;2023-05-10T01:46:39;15.80;85.40
39045;DHT22;52192;52.002;5.956;2023-05-10T01:48:47;15.80;85.30
39045;DHT22;52192;52.002;5.956;2023-05-10T01:51:15;15.80;85.40
39045;DHT22;52192;52.002;5.956;2023-05-10T01:53:42;15.90;85.50
39045;DHT22;52192;52.002;5.956;2023-05-10T01:56:11;15.90;85.50
39045;DHT22;52192;52.002;5.956;2023-05-10T01:58:40;15.90;85.40
39045;DHT22;52192;52.002;5.956;2023-05-10T02:01:10;15.90;85.50
39045;DHT22;52192;52.002;5.956;2023-05-10T02:03:37;15.90;85.40
39045;DHT22;52192;52.002;5.956;2023-05-10T02:06:04;15.90;85.40
39045;DHT22;52192;52.002;5.956;2023-05-10T02:08:31;15.90;85.50
39045;DHT22;52192;52.002;5.956;2023-05-10T02:10:58;15.90;85.50
39045;DHT22;52192;52.002;5.956;2023-05-10T02:13:25;15.90;85.40
39045;DHT22;52192;52.002;5.956;2023-05-10T02:15:53;15.90;85.40
39045;DHT22;52192;52.002;5.956;2023-05-10T02:18:21;15.90;85.50
39045;DHT22;52192;52.002;5.956;2023-05-10T02:20:47;16.00;85.50
39045;DHT22;52192;52.002;5.956;2023-05-10T02:23:14;16.00;85.50
39045;DHT22;52192;52.002;5.956;2023-05-10T02:25:41;16.00;85.40
39045;DHT22;52192;52.002;5.956;2023-05-10T02:28:08;16.00;85.40
39045;DHT22;52192;52.002;5.956;2023-05-10T02:30:36;16.00;85.30
39045;DHT22;52192;52.002;5.956;2023-05-10T02:33:03;16.00;85.40
39045;DHT22;52192;52.002;5.956;2023-05-10T02:35:30;16.00;85.40
39045;DHT22;52192;52.002;5.956;2023-05-10T02:37:59;16.00;85.30
39045;DHT22;52192;52.002;5.956;2023-05-10T02:40:25;16.00;85.30
39045;DHT22;52192;52.002;5.956;2023-05-10T02:42:54;16.00;85.40
39045;DHT22;52192;52.002;5.956;2023-05-10T02:45:24;16.00;85.40
39045;DHT22;52192;52.002;5.956;2023-05-10T02:47:52;16.00;85.40
39045;DHT22;52192;52.002;5.956;2023-05-10T02:50:18;16.00;85.40
39045;DHT22;52192;52.002;5.956;2023-05-10T02:52:50;16.00;85.40
39045;DHT22;52192;52.002;5.956;2023-05-10T02:55:21;15.90;85.40
39045;DHT22;52192;52.002;5.956;2023-05-10T02:57:58;15.90;85.70
39045;DHT22;52192;52.002;5.956;2023-05-10T03:00:25;15.90;85.80
39045;DHT22;52192;52.002;5.956;2023-05-10T03:02:50;15.80;85.90
39045;DHT22;52192;52.002;5.956;2023-05-10T03:05:16;15.80;86.10
39045;DHT22;52192;52.002;5.956;2023-05-10T03:07:42;15.80;86.00
39045;DHT22;52192;52.002;5.956;2023-05-10T03:10:09;15.80;86.00
39045;DHT22;52192;52.002;5.956;2023-05-10T03:13:32;15.80;86.00
39045;DHT22;52192;52.002;5.956;2023-05-10T03:16:01;15.80;86.00
39045;DHT22;52192;52.002;5.956;2023-05-10T03:18:41;15.80;85.90
39045;DHT22;52192;52.002;5.956;2023-05-10T03:21:11;15.80;85.80
39045;DHT22;52192;52.002;5.956;2023-05-10T03:23:41;15.80;85.80
39045;DHT22;52192;52.002;5.956;2023-05-10T03:26:08;15.80;85.80
39045;DHT22;52192;52.002;5.956;2023-05-10T03:28:35;15.70;86.00
39045;DHT22;52192;52.002;5.956;2023-05-10T03:31:03;15.70;86.20
39045;DHT22;52192;52.002;5.956;2023-05-10T03:33:29;15.60;86.30
39045;DHT22;52192;52.002;5.956;2023-05-10T03:35:55;15.60;86.40
39045;DHT22;52192;52.002;5.956;2023-05-10T03:38:20;15.60;86.60
39045;DHT22;52192;52.002;5.956;2023-05-10T03:40:46;15.50;86.60
39045;DHT22;52192;52.002;5.956;2023-05-10T03:43:12;15.60;86.60
39045;DHT22;52192;52.002;5.956;2023-05-10T03:45:37;15.60;86.50
39045;DHT22;52192;52.002;5.956;2023-05-10T03:48:03;15.60;86.30
39045;DHT22;52192;52.002;5.956;2023-05-10T03:50:29;15.60;86.30
39045;DHT22;52192;52.002;5.956;2023-05-10T03:52:55;15.60;86.30
39045;DHT22;52192;52.002;5.956;2023-05-10T03:55:20;15.60;86.40
39045;DHT22;52192;52.002;5.956;2023-05-10T03:57:47;15.50;86.40
39045;DHT22;52192;52.002;5.956;2023-05-10T04:00:15;15.50;86.40
39045;DHT22;52192;52.002;5.956;2023-05-10T04:02:41;15.50;86.40
39045;DHT22;52192;52.002;5.956;2023-05-10T04:05:07;15.50;86.30
39045;DHT22;52192;52.002;5.956;2023-05-10T04:07:33;15.50;86.40
39045;DHT22;52192;52.002;5.956;2023-05-10T04:09:58;15.40;86.30
39045;DHT22;52192;52.002;5.956;2023-05-10T04:12:24;15.40;86.40
39045;DHT22;52192;52.002;5.956;2023-05-10T04:14:50;15.40;86.40
39045;DHT22;52192;52.002;5.956;2023-05-10T04:17:16;15.40;86.50
39045;DHT22;52192;52.002;5.956;2023-05-10T04:19:42;15.30;86.40
39045;DHT22;52192;52.002;5.956;2023-05-10T04:22:07;15.30;86.50
39045;DHT22;52192;52.002;5.956;2023-05-10T04:24:33;15.30;86.50
39045;DHT22;52192;52.002;5.956;2023-05-10T04:26:59;15.30;86.40
39045;DHT22;52192;52.002;5.956;2023-05-10T04:29:25;15.20;86.40
39045;DHT22;52192;52.002;5.956;2023-05-10T04:31:52;15.30;86.40
39045;DHT22;52192;52.002;5.956;2023-05-10T04:34:20;15.30;86.40
39045;DHT22;52192;52.002;5.956;2023-05-10T04:36:46;15.30;86.20
39045;DHT22;52192;52.002;5.956;2023-05-10T04:39:11;15.30;86.20
39045;DHT22;52192;52.002;5.956;2023-05-10T04:41:38;15.40;86.20
39045;DHT22;52192;52.002;5.956;2023-05-10T04:44:04;15.40;86.00
39045;DHT22;52192;52.002;5.956;2023-05-10T04:46:29;15.40;86.00
39045;DHT22;52192;52.002;5.956;2023-05-10T04:48:55;15.30;85.90
39045;DHT22;52192;52.002;5.956;2023-05-10T04:51:20;15.30;86.00
39045;DHT22;52192;52.002;5.956;2023-05-10T04:53:46;15.20;86.70
39045;DHT22;52192;52.002;5.956;2023-05-10T04:56:12;15.20;86.30
39045;DHT22;52192;52.002;5.956;2023-05-10T04:58:37;15.20;86.40
39045;DHT22;52192;52.002;5.956;2023-05-10T05:01:07;15.20;86.40
39045;DHT22;52192;52.002;5.956;2023-05-10T05:03:33;15.20;86.40
39045;DHT22;52192;52.002;5.956;2023-05-10T05:05:59;15.30;86.40
39045;DHT22;52192;52.002;5.956;2023-05-10T05:08:25;15.30;86.30
39045;DHT22;52192;52.002;5.956;2023-05-10T05:10:50;15.30;86.30
39045;DHT22;52192;52.002;5.956;2023-05-10T05:13:16;15.40;86.20
39045;DHT22;52192;52.002;5.956;2023-05-10T05:15:42;15.40;86.10
39045;DHT22;52192;52.002;5.956;2023-05-10T05:18:07;15.40;86.00
39045;DHT22;52192;52.002;5.956;2023-05-10T05:20:33;15.40;86.00
39045;DHT22;52192;52.002;5.956;2023-05-10T05:23:00;15.50;85.90
39045;DHT22;52192;52.002;5.956;2023-05-10T05:25:25;15.50;85.70
39045;DHT22;52192;52.002;5.956;2023-05-10T05:27:51;15.50;85.70
39045;DHT22;52192;52.002;5.956;2023-05-10T05:30:17;15.50;85.70
39045;DHT22;52192;52.002;5.956;2023-05-10T05:32:42;15.50;85.70
39045;DHT22;52192;52.002;5.956;2023-05-10T05:35:08;15.50;85.70
39045;DHT22;52192;52.002;5.956;2023-05-10T05:37:34;15.50;85.70
39045;DHT22;52192;52.002;5.956;2023-05-10T05:40:00;15.50;85.80
39045;DHT22;52192;52.002;5.956;2023-05-10T05:42:27;15.50;85.70
39045;DHT22;52192;52.002;5.956;2023-05-10T05:44:53;15.60;85.60
39045;DHT22;52192;52.002;5.956;2023-05-10T05:47:18;15.60;85.60
39045;DHT22;52192;52.002;5.956;2023-05-10T05:49:44;15.60;85.60
39045;DHT22;52192;52.002;5.956;2023-05-10T05:52:12;15.60;85.60
39045;DHT22;52192;52.002;5.956;2023-05-10T05:54:39;15.70;85.70
39045;DHT22;52192;52.002;5.956;2023-05-10T05:57:05;15.80;85.60
39045;DHT22;52192;52.002;5.956;2023-05-10T05:59:31;15.80;85.50
39045;DHT22;52192;52.002;5.956;2023-05-10T06:01:56;15.80;85.30
39045;DHT22;52192;52.002;5.956;2023-05-10T06:04:22;15.90;85.40
39045;DHT22;52192;52.002;5.956;2023-05-10T06:06:48;15.90;85.30
39045;DHT22;52192;52.002;5.956;2023-05-10T06:09:14;16.00;85.30
39045;DHT22;52192;52.002;5.956;2023-05-10T06:11:39;16.00;85.10
39045;DHT22;52192;52.002;5.956;2023-05-10T06:14:05;16.00;85.00
39045;DHT22;52192;52.002;5.956;2023-05-10T06:16:33;16.00;84.90
39045;DHT22;52192;52.002;5.956;2023-05-10T06:18:59;16.00;84.90
39045;DHT22;52192;52.002;5.956;2023-05-10T06:21:25;16.00;85.10
39045;DHT22;52192;52.002;5.956;2023-05-10T06:23:51;15.90;85.20
39045;DHT22;52192;52.002;5.956;2023-05-10T06:26:16;15.90;85.20
39045;DHT22;52192;52.002;5.956;2023-05-10T06:28:42;15.90;85.10
39045;DHT22;52192;52.002;5.956;2023-05-10T06:31:08;15.90;85.20
39045;DHT22;52192;52.002;5.956;2023-05-10T06:33:34;15.80;85.20
39045;DHT22;52192;52.002;5.956;2023-05-10T06:35:59;15.80;85.20
39045;DHT22;52192;52.002;5.956;2023-05-10T06:38:25;15.80;85.30
39045;DHT22;52192;52.002;5.956;2023-05-10T06:40:51;15.70;85.30
39045;DHT22;52192;52.002;5.956;2023-05-10T06:43:17;15.70;85.50
39045;DHT22;52192;52.002;5.956;2023-05-10T06:45:43;15.70;85.50
39045;DHT22;52192;52.002;5.956;2023-05-10T06:48:08;15.80;85.50
39045;DHT22;52192;52.002;5.956;2023-05-10T06:50:34;15.80;85.40
39045;DHT22;52192;52.002;5.956;2023-05-10T06:53:00;15.70;85.50
39045;DHT22;52192;52.002;5.956;2023-05-10T06:55:27;15.60;85.60
39045;DHT22;52192;52.002;5.956;2023-05-10T06:57:53;15.60;85.80
39045;DHT22;52192;52.002;5.956;2023-05-10T07:00:19;15.60;85.80
39045;DHT22;52192;52.002;5.956;2023-05-10T07:02:45;15.60;85.90
39045;DHT22;52192;52.002;5.956;2023-05-10T07:05:12;15.50;85.90
39045;DHT22;52192;52.002;5.956;2023-05-10T07:07:37;15.50;86.00
39045;DHT22;52192;52.002;5.956;2023-05-10T07:10:03;15.60;86.10
39045;DHT22;52192;52.002;5.956;2023-05-10T07:12:30;15.60;85.90
39045;DHT22;52192;52.002;5.956;2023-05-10T07:14:56;15.70;85.90
39045;DHT22;52192;52.002;5.956;2023-05-10T07:17:22;15.70;85.70
39045;DHT22;52192;52.002;5.956;2023-05-10T07:19:48;15.70;85.60
39045;DHT22;52192;52.002;5.956;2023-05-10T07:22:14;15.80;85.50
39045;DHT22;52192;52.002;5.956;2023-05-10T07:24:40;15.80;85.30
39045;DHT22;52192;52.002;5.956;2023-05-10T07:27:06;15.80;85.30
39045;DHT22;52192;52.002;5.956;2023-05-10T07:29:32;15.90;85.30
39045;DHT22;52192;52.002;5.956;2023-05-10T07:31:58;15.90;85.10
39045;DHT22;52192;52.002;5.956;2023-05-10T07:34:23;15.90;85.10
39045;DHT22;52192;52.002;5.956;2023-05-10T07:36:49;16.00;85.20
39045;DHT22;52192;52.002;5.956;2023-05-10T07:39:15;16.00;85.10
39045;DHT22;52192;52.002;5.956;2023-05-10T07:41:40;16.10;85.00
39045;DHT22;52192;52.002;5.956;2023-05-10T07:44:06;16.10;85.00
39045;DHT22;52192;52.002;5.956;2023-05-10T07:46:32;16.10;85.00
39045;DHT22;52192;52.002;5.956;2023-05-10T07:48:58;16.10;84.90
39045;DHT22;52192;52.002;5.956;2023-05-10T07:51:24;16.20;85.00
39045;DHT22;52192;52.002;5.956;2023-05-10T07:53:49;16.20;84.90
39045;DHT22;52192;52.002;5.956;2023-05-10T07:56:23;16.30;84.80
39045;DHT22;52192;52.002;5.956;2023-05-10T07:58:50;16.30;84.70
39045;DHT22;52192;52.002;5.956;2023-05-10T08:01:16;16.40;84.40
39045;DHT22;52192;52.002;5.956;2023-05-10T08:03:42;16.40;84.20
39045;DHT22;52192;52.002;5.956;2023-05-10T08:06:07;16.30;84.30
39045;DHT22;52192;52.002;5.956;2023-05-10T08:08:33;16.40;84.50
39045;DHT22;52192;52.002;5.956;2023-05-10T08:10:59;16.40;84.50
39045;DHT22;52192;52.002;5.956;2023-05-10T08:13:24;16.40;84.20
39045;DHT22;52192;52.002;5.956;2023-05-10T08:15:50;16.40;84.00
39045;DHT22;52192;52.002;5.956;2023-05-10T08:18:18;16.40;84.20
39045;DHT22;52192;52.002;5.956;2023-05-10T08:20:44;16.50;84.10
39045;DHT22;52192;52.002;5.956;2023-05-10T08:23:12;16.60;83.90
39045;DHT22;52192;52.002;5.956;2023-05-10T08:25:37;16.70;83.80
39045;DHT22;52192;52.002;5.956;2023-05-10T08:28:03;16.80;83.50
39045;DHT22;52192;52.002;5.956;2023-05-10T08:30:29;16.90;83.20
39045;DHT22;52192;52.002;5.956;2023-05-10T08:32:54;16.90;83.20
39045;DHT22;52192;52.002;5.956;2023-05-10T08:35:20;17.00;83.00
39045;DHT22;52192;52.002;5.956;2023-05-10T08:37:46;17.00;82.70
39045;DHT22;52192;52.002;5.956;2023-05-10T08:40:11;17.00;82.60
39045;DHT22;52192;52.002;5.956;2023-05-10T08:42:40;17.10;82.40
39045;DHT22;52192;52.002;5.956;2023-05-10T08:45:07;17.10;82.50
39045;DHT22;52192;52.002;5.956;2023-05-10T08:47:36;17.00;82.40
39045;DHT22;52192;52.002;5.956;2023-05-10T08:50:03;16.90;82.30
39045;DHT22;52192;52.002;5.956;2023-05-10T08:52:30;16.80;82.40
39045;DHT22;52192;52.002;5.956;2023-05-10T08:54:58;16.70;82.50
39045;DHT22;52192;52.002;5.956;2023-05-10T08:57:24;16.60;82.60
39045;DHT22;52192;52.002;5.956;2023-05-10T08:59:50;16.60;82.80
39045;DHT22;52192;52.002;5.956;2023-05-10T09:02:16;16.60;82.70
39045;DHT22;52192;52.002;5.956;2023-05-10T09:04:43;16.60;82.70
39045;DHT22;52192;52.002;5.956;2023-05-10T09:07:10;16.60;82.50
39045;DHT22;52192;52.002;5.956;2023-05-10T09:09:36;16.60;82.50
39045;DHT22;52192;52.002;5.956;2023-05-10T09:12:02;16.60;82.30
39045;DHT22;52192;52.002;5.956;2023-05-10T09:14:29;16.70;82.30
39045;DHT22;52192;52.002;5.956;2023-05-10T09:16:56;16.70;82.10
39045;DHT22;52192;52.002;5.956;2023-05-10T09:19:22;16.70;82.00
39045;DHT22;52192;52.002;5.956;2023-05-10T09:21:48;16.70;82.00
39045;DHT22;52192;52.002;5.956;2023-05-10T09:24:14;16.70;81.90
39045;DHT22;52192;52.002;5.956;2023-05-10T09:26:47;16.90;82.10
39045;DHT22;52192;52.002;5.956;2023-05-10T09:29:14;17.10;81.70
39045;DHT22;52192;52.002;5.956;2023-05-10T09:31:50;17.20;80.70
39045;DHT22;52192;52.002;5.956;2023-05-10T09:34:28;17.30;80.10
39045;DHT22;52192;52.002;5.956;2023-05-10T09:37:02;17.40;80.00
39045;DHT22;52192;52.002;5.956;2023-05-10T09:39:34;17.40;79.90
39045;DHT22;52192;52.002;5.956;2023-05-10T09:42:09;17.50;80.00
39045;DHT22;52192;52.002;5.956;2023-05-10T09:44:35;17.50;79.30
39045;DHT22;52192;52.002;5.956;2023-05-10T09:47:02;17.40;79.30
39045;DHT22;52192;52.002;5.956;2023-05-10T09:49:28;17.30;79.30
39045;DHT22;52192;52.002;5.956;2023-05-10T09:52:04;17.30;79.40
39045;DHT22;52192;52.002;5.956;2023-05-10T09:54:30;17.40;79.40
39045;DHT22;52192;52.002;5.956;2023-05-10T09:56:56;17.40;78.70
39045;DHT22;52192;52.002;5.956;2023-05-10T09:59:25;17.40;78.10
39045;DHT22;52192;52.002;5.956;2023-05-10T10:01:52;17.40;78.10
39045;DHT22;52192;52.002;5.956;2023-05-10T10:04:18;17.40;78.40
39045;DHT22;52192;52.002;5.956;2023-05-10T10:06:45;17.40;78.10
39045;DHT22;52192;52.002;5.956;2023-05-10T10:09:11;17.40;77.60
39045;DHT22;52192;52.002;5.956;2023-05-10T10:11:38;17.30;77.70
39045;DHT22;52192;52.002;5.956;2023-05-10T10:14:04;17.30;77.20
39045;DHT22;52192;52.002;5.956;2023-05-10T10:16:31;17.30;77.20
39045;DHT22;52192;52.002;5.956;2023-05-10T10:18:57;17.40;77.40
39045;DHT22;52192;52.002;5.956;2023-05-10T10:21:23;17.50;77.30
39045;DHT22;52192;52.002;5.956;2023-05-10T10:23:49;17.50;76.90
39045;DHT22;52192;52.002;5.956;2023-05-10T10:26:17;17.50;76.90
39045;DHT22;52192;52.002;5.956;2023-05-10T10:31:26;17.30;76.70
39045;DHT22;52192;52.002;5.956;2023-05-10T10:34:08;17.30;77.10
39045;DHT22;52192;52.002;5.956;2023-05-10T10:36:44;17.30;77.20
39045;DHT22;52192;52.002;5.956;2023-05-10T10:39:11;17.30;77.30
39045;DHT22;52192;52.002;5.956;2023-05-10T10:41:40;17.40;77.30
39045;DHT22;52192;52.002;5.956;2023-05-10T10:49:52;17.40;76.80
39045;DHT22;52192;52.002;5.956;2023-05-10T10:52:35;17.40;76.50
39045;DHT22;52192;52.002;5.956;2023-05-10T10:55:14;17.30;76.30
39045;DHT22;52192;52.002;5.956;2023-05-10T11:02:59;17.90;75.70
39045;DHT22;52192;52.002;5.956;2023-05-10T11:10:32;17.90;74.50
39045;DHT22;52192;52.002;5.956;2023-05-10T11:13:06;17.90;74.70
39045;DHT22;52192;52.002;5.956;2023-05-10T11:15:36;17.90;74.50
39045;DHT22;52192;52.002;5.956;2023-05-10T11:18:28;17.80;74.70
39045;DHT22;52192;52.002;5.956;2023-05-10T11:21:04;17.90;74.70
39045;DHT22;52192;52.002;5.956;2023-05-10T11:26:07;17.80;74.70
39045;DHT22;52192;52.002;5.956;2023-05-10T11:28:45;17.90;74.50
39045;DHT22;52192;52.002;5.956;2023-05-10T11:31:14;18.10;74.50
39045;DHT22;52192;52.002;5.956;2023-05-10T11:33:50;18.20;74.20
39045;DHT22;52192;52.002;5.956;2023-05-10T11:36:20;18.30;74.00
39045;DHT22;52192;52.002;5.956;2023-05-10T11:38:47;18.40;73.90
39045;DHT22;52192;52.002;5.956;2023-05-10T11:41:14;18.50;73.80
39045;DHT22;52192;52.002;5.956;2023-05-10T11:43:41;18.60;73.50
39045;DHT22;52192;52.002;5.956;2023-05-10T11:46:09;18.70;73.40
39045;DHT22;52192;52.002;5.956;2023-05-10T11:48:36;18.80;73.30
39045;DHT22;52192;52.002;5.956;2023-05-10T11:51:02;18.80;73.10
39045;DHT22;52192;52.002;5.956;2023-05-10T11:53:32;18.70;72.90
39045;DHT22;52192;52.002;5.956;2023-05-10T11:56:05;18.70;72.70
39045;DHT22;52192;52.002;5.956;2023-05-10T11:58:32;18.60;73.00
39045;DHT22;52192;52.002;5.956;2023-05-10T12:01:02;18.60;72.90
39045;DHT22;52192;52.002;5.956;2023-05-10T12:03:28;18.70;72.80
39045;DHT22;52192;52.002;5.956;2023-05-10T12:05:58;18.70;72.20
39045;DHT22;52192;52.002;5.956;2023-05-10T12:08:26;18.70;72.20
39045;DHT22;52192;52.002;5.956;2023-05-10T12:10:53;18.60;72.20
39045;DHT22;52192;52.002;5.956;2023-05-10T12:13:20;18.70;72.40
39045;DHT22;52192;52.002;5.956;2023-05-10T12:15:46;18.70;72.30
39045;DHT22;52192;52.002;5.956;2023-05-10T12:18:13;18.80;72.20
39045;DHT22;52192;52.002;5.956;2023-05-10T12:20:40;18.80;72.20
39045;DHT22;52192;52.002;5.956;2023-05-10T12:23:07;18.80;72.10
39045;DHT22;52192;52.002;5.956;2023-05-10T12:25:35;18.90;72.30
39045;DHT22;52192;52.002;5.956;2023-05-10T12:28:03;18.90;72.40
39045;DHT22;52192;52.002;5.956;2023-05-10T12:30:31;19.10;72.40
39045;DHT22;52192;52.002;5.956;2023-05-10T12:33:10;19.30;72.10
39045;DHT22;52192;52.002;5.956;2023-05-10T12:35:50;19.50;71.70
39045;DHT22;52192;52.002;5.956;2023-05-10T12:40:50;20.00;71.20
39045;DHT22;52192;52.002;5.956;2023-05-10T12:43:16;20.10;70.20
39045;DHT22;52192;52.002;5.956;2023-05-10T12:45:42;20.10;69.70
39045;DHT22;52192;52.002;5.956;2023-05-10T12:48:07;20.10;69.50
39045;DHT22;52192;52.002;5.956;2023-05-10T12:50:33;20.00;69.90
39045;DHT22;52192;52.002;5.956;2023-05-10T12:52:58;20.10;70.00
39045;DHT22;52192;52.002;5.956;2023-05-10T12:55:24;20.00;68.60
39045;DHT22;52192;52.002;5.956;2023-05-10T12:57:50;19.90;68.90
39045;DHT22;52192;52.002;5.956;2023-05-10T13:00:16;19.90;68.80
39045;DHT22;52192;52.002;5.956;2023-05-10T13:02:42;20.00;68.90
39045;DHT22;52192;52.002;5.956;2023-05-10T13:05:07;20.00;68.80
39045;DHT22;52192;52.002;5.956;2023-05-10T13:07:33;20.00;68.60
39045;DHT22;52192;52.002;5.956;2023-05-10T13:09:59;20.00;68.60
39045;DHT22;52192;52.002;5.956;2023-05-10T13:12:24;20.00;68.90
39045;DHT22;52192;52.002;5.956;2023-05-10T13:14:50;20.00;69.80
39045;DHT22;52192;52.002;5.956;2023-05-10T13:17:16;20.00;69.40
39045;DHT22;52192;52.002;5.956;2023-05-10T13:19:41;20.00;69.50
39045;DHT22;52192;52.002;5.956;2023-05-10T13:22:07;20.00;69.60
39045;DHT22;52192;52.002;5.956;2023-05-10T13:24:34;20.00;69.00
39045;DHT22;52192;52.002;5.956;2023-05-10T13:26:59;20.00;69.40
39045;DHT22;52192;52.002;5.956;2023-05-10T13:29:25;20.00;69.40
39045;DHT22;52192;52.002;5.956;2023-05-10T13:31:51;20.00;69.10
39045;DHT22;52192;52.002;5.956;2023-05-10T13:34:16;19.90;68.80
39045;DHT22;52192;52.002;5.956;2023-05-10T13:36:46;19.80;69.00
39045;DHT22;52192;52.002;5.956;2023-05-10T13:39:11;19.80;68.90
39045;DHT22;52192;52.002;5.956;2023-05-10T13:41:37;19.70;68.90
39045;DHT22;52192;52.002;5.956;2023-05-10T13:44:03;19.60;68.90
39045;DHT22;52192;52.002;5.956;2023-05-10T13:46:29;19.60;68.30
39045;DHT22;52192;52.002;5.956;2023-05-10T13:48:56;19.60;68.40
39045;DHT22;52192;52.002;5.956;2023-05-10T13:51:22;19.60;68.40
39045;DHT22;52192;52.002;5.956;2023-05-10T13:53:48;19.60;68.60
39045;DHT22;52192;52.002;5.956;2023-05-10T13:56:14;19.60;68.50
39045;DHT22;52192;52.002;5.956;2023-05-10T13:58:40;19.50;68.30
39045;DHT22;52192;52.002;5.956;2023-05-10T14:01:05;19.40;68.40
39045;DHT22;52192;52.002;5.956;2023-05-10T14:03:31;19.30;68.90
39045;DHT22;52192;52.002;5.956;2023-05-10T14:05:58;19.30;69.30
39045;DHT22;52192;52.002;5.956;2023-05-10T14:08:23;19.20;69.90
39045;DHT22;52192;52.002;5.956;2023-05-10T14:10:49;19.00;70.50
39045;DHT22;52192;52.002;5.956;2023-05-10T14:13:16;18.90;71.10
39045;DHT22;52192;52.002;5.956;2023-05-10T14:15:41;18.70;71.60
39045;DHT22;52192;52.002;5.956;2023-05-10T14:18:07;18.50;72.40
39045;DHT22;52192;52.002;5.956;2023-05-10T14:20:33;18.30;72.80
39045;DHT22;52192;52.002;5.956;2023-05-10T14:22:59;18.30;73.00
39045;DHT22;52192;52.002;5.956;2023-05-10T14:25:25;18.40;72.90
39045;DHT22;52192;52.002;5.956;2023-05-10T14:27:51;18.40;72.70
39045;DHT22;52192;52.002;5.956;2023-05-10T14:30:20;18.50;72.70
39045;DHT22;52192;52.002;5.956;2023-05-10T14:32:46;18.50;72.70
39045;DHT22;52192;52.002;5.956;2023-05-10T14:35:11;18.50;72.80
39045;DHT22;52192;52.002;5.956;2023-05-10T14:37:38;18.50;72.90
39045;DHT22;52192;52.002;5.956;2023-05-10T14:40:05;18.50;73.00
39045;DHT22;52192;52.002;5.956;2023-05-10T14:42:31;18.50;73.10
39045;DHT22;52192;52.002;5.956;2023-05-10T14:44:57;18.50;73.20
39045;DHT22;52192;52.002;5.956;2023-05-10T14:47:23;18.50;73.40
39045;DHT22;52192;52.002;5.956;2023-05-10T14:49:49;18.30;73.70
39045;DHT22;52192;52.002;5.956;2023-05-10T14:52:14;18.20;74.10
39045;DHT22;52192;52.002;5.956;2023-05-10T14:54:40;18.20;74.40
39045;DHT22;52192;52.002;5.956;2023-05-10T14:57:07;18.20;74.60
39045;DHT22;52192;52.002;5.956;2023-05-10T14:59:32;18.20;74.60
39045;DHT22;52192;52.002;5.956;2023-05-10T15:01:59;18.30;74.70
39045;DHT22;52192;52.002;5.956;2023-05-10T15:04:24;18.20;74.70
39045;DHT22;52192;52.002;5.956;2023-05-10T15:06:50;18.20;74.80
39045;DHT22;52192;52.002;5.956;2023-05-10T15:09:15;18.20;74.90
39045;DHT22;52192;52.002;5.956;2023-05-10T15:11:42;18.30;74.90
39045;DHT22;52192;52.002;5.956;2023-05-10T15:14:07;18.30;74.80
39045;DHT22;52192;52.002;5.956;2023-05-10T15:16:33;18.40;74.60
39045;DHT22;52192;52.002;5.956;2023-05-10T15:18:59;18.40;74.60
39045;DHT22;52192;52.002;5.956;2023-05-10T15:21:24;18.40;74.30
39045;DHT22;52192;52.002;5.956;2023-05-10T15:23:51;18.40;74.30
39045;DHT22;52192;52.002;5.956;2023-05-10T15:26:16;18.50;74.10
39045;DHT22;52192;52.002;5.956;2023-05-10T15:28:42;18.40;74.10
39045;DHT22;52192;52.002;5.956;2023-05-10T15:31:08;18.30;74.10
39045;DHT22;52192;52.002;5.956;2023-05-10T15:33:34;18.30;74.20
39045;DHT22;52192;52.002;5.956;2023-05-10T15:35:59;18.30;74.30
39045;DHT22;52192;52.002;5.956;2023-05-10T15:38:25;18.30;74.40
39045;DHT22;52192;52.002;5.956;2023-05-10T15:40:51;18.30;74.40
39045;DHT22;52192;52.002;5.956;2023-05-10T15:43:20;18.30;74.40
39045;DHT22;52192;52.002;5.956;2023-05-10T15:45:45;18.30;74.30
39045;DHT22;52192;52.002;5.956;2023-05-10T15:48:11;18.30;74.10
39045;DHT22;52192;52.002;5.956;2023-05-10T15:50:37;18.20;74.10
39045;DHT22;52192;52.002;5.956;2023-05-10T15:53:02;18.20;74.10
39045;DHT22;52192;52.002;5.956;2023-05-10T15:55:28;18.10;74.40
39045;DHT22;52192;52.002;5.956;2023-05-10T15:57:54;18.10;74.60
39045;DHT22;52192;52.002;5.956;2023-05-10T16:00:20;18.20;74.50
39045;DHT22;52192;52.002;5.956;2023-05-10T16:02:45;18.20;74.40